Time,TemperatureF,DewpointF,PressureIn,WindDirection,WindDirectionDegrees,WindSpeedMPH,WindSpeedGustMPH,Humidity,HourlyPrecipIn,Conditions,Clouds,dailyrainin,SoftwareType,DateUTC
2013-09-02 00:07:00,62.7,47.0,29.76,WNW,290,0.0,3.0,57,0.00,,,0.00,weatherlink.com 1.10,2013-09-02 06:07:00,
2013-09-02 00:22:00,62.1,47.0,29.76,ESE,113,0.0,3.0,58,0.00,,,0.00,weatherlink.com 1.10,2013-09-02 06:22:00,
2013-09-02 00:37:00,61.4,47.0,29.76,SE,127,0.0,5.0,60,0.00,,,0.00,weatherlink.com 1.10,2013-09-02 06:37:00,
2013-09-02 00:52:00,60.8,47.0,29.76,ESE,114,0.0,1.0,61,0.00,,,0.00,weatherlink.com 1.10,2013-09-02 06:52:00,
2013-09-02 01:07:00,60.5,47.0,29.76,SE,144,0.0,2.0,62,0.00,,,0.00,weatherlink.com 1.10,2013-09-02 07:07:00,
2013-09-02 01:22:00,59.9,47.0,29.76,SE,136,0.0,2.0,63,0.00,,,0.00,weatherlink.com 1.10,2013-09-02 07:22:00,
2013-09-02 01:38:00,59.7,47.0,29.76,SSE,158,0.0,1.0,63,0.00,,,0.00,weatherlink.com 1.10,2013-09-02 07:38:00,
2013-09-02 01:53:00,59.8,47.0,29.76,SE,131,0.0,2.0,63,0.00,,,0.00,weatherlink.com 1.10,2013-09-02 07:53:00,
2013-09-02 02:08:00,59.6,47.0,29.76,ESE,115,0.0,3.0,64,0.00,,,0.00,weatherlink.com 1.10,2013-09-02 08:08:00,
2013-09-02 02:23:00,59.1,48.0,29.76,North,351,0.0,1.0,66,0.00,,,0.00,weatherlink.com 1.10,2013-09-02 08:23:00,
2013-09-02 02:38:00,59.4,48.0,29.76,North,5,0.0,2.0,65,0.00,,,0.00,weatherlink.com 1.10,2013-09-02 08:38:00,
2013-09-02 02:53:00,59.4,48.0,29.76,SE,138,0.0,2.0,66,0.00,,,0.00,weatherlink.com 1.10,2013-09-02 08:53:00,
2013-09-02 03:08:00,58.9,48.0,29.76,SE,146,0.0,1.0,68,0.00,,,0.00,weatherlink.com 1.10,2013-09-02 09:08:00,
2013-09-02 03:23:00,58.6,48.0,29.76,NNW,339,0.0,1.0,68,0.00,,,0.00,weatherlink.com 1.10,2013-09-02 09:23:00,
2013-09-02 03:38:00,58.6,48.0,29.76,ENE,65,0.0,2.0,68,0.00,,,0.00,weatherlink.com 1.10,2013-09-02 09:38:00,
2013-09-02 03:53:00,58.3,48.0,29.76,NNW,333,0.0,3.0,68,0.00,,,0.00,weatherlink.com 1.10,2013-09-02 09:53:00,
2013-09-02 04:08:00,58.6,48.0,29.76,ESE,122,1.0,3.0,68,0.00,,,0.00,weatherlink.com 1.10,2013-09-02 10:08:00,
2013-09-02 04:23:00,58.2,48.0,29.76,ESE,122,0.0,4.0,69,0.00,,,0.00,weatherlink.com 1.10,2013-09-02 10:23:00,
2013-09-02 04:38:00,58.0,48.0,29.76,ESE,107,0.0,1.0,69,0.00,,,0.00,weatherlink.com 1.10,2013-09-02 10:38:00,
2013-09-02 04:53:00,57.6,48.0,29.76,SSE,166,0.0,1.0,70,0.00,,,0.00,weatherlink.com 1.10,2013-09-02 10:53:00,
2013-09-02 05:08:00,57.2,47.0,29.76,SSE,165,0.0,2.0,69,0.00,,,0.00,weatherlink.com 1.10,2013-09-02 11:08:00,
2013-09-02 05:23:00,-999.0,-99.9,29.76,North,-999,-999.0,-999.0,-999,0.00,,,0.00,weatherlink.com 1.10,2013-09-02 11:23:00,
2013-09-02 05:38:00,-999.0,-99.9,29.76,North,-999,-999.0,-999.0,-999,0.00,,,0.00,weatherlink.com 1.10,2013-09-02 11:38:00,
2013-09-02 05:53:00,-999.0,-99.9,29.75,North,-999,-999.0,-999.0,-999,0.00,,,0.00,weatherlink.com 1.10,2013-09-02 11:53:00,
2013-09-02 06:08:00,-999.0,-99.9,29.76,North,-999,-999.0,-999.0,-999,0.00,,,0.00,weatherlink.com 1.10,2013-09-02 12:08:00,
2013-09-02 06:23:00,-999.0,-99.9,29.76,North,-999,-999.0,-999.0,-999,0.00,,,0.00,weatherlink.com 1.10,2013-09-02 12:23:00,
2013-09-02 06:38:00,-999.0,-99.9,29.76,North,-999,-999.0,-999.0,-999,0.00,,,0.00,weatherlink.com 1.10,2013-09-02 12:38:00,
2013-09-02 06:53:00,-999.0,-99.9,29.76,North,-999,-999.0,-999.0,-999,0.00,,,0.00,weatherlink.com 1.10,2013-09-02 12:53:00,
2013-09-02 07:08:00,59.3,48.0,29.77,SSW,210,0.0,1.0,67,0.00,,,0.00,weatherlink.com 1.10,2013-09-02 13:08:00,
2013-09-02 07:23:00,60.8,49.0,29.77,ESE,114,0.0,3.0,65,0.00,,,0.00,weatherlink.com 1.10,2013-09-02 13:23:00,
2013-09-02 07:38:00,62.3,49.0,29.77,SSE,158,1.0,4.0,62,0.00,,,0.00,weatherlink.com 1.10,2013-09-02 13:38:00,
2013-09-02 07:53:00,63.7,49.0,29.76,WSW,250,1.0,7.0,60,0.00,,,0.00,weatherlink.com 1.10,2013-09-02 13:53:00,
2013-09-02 08:08:00,64.9,50.0,29.77,SSE,156,2.0,7.0,58,0.00,,,0.00,weatherlink.com 1.10,2013-09-02 14:08:00,
2013-09-02 08:24:00,66.6,50.0,29.77,South,184,1.0,7.0,55,0.00,,,0.00,weatherlink.com 1.10,2013-09-02 14:24:00,
2013-09-02 08:39:00,69.1,51.0,29.77,South,190,1.0,5.0,53,0.00,,,0.00,weatherlink.com 1.10,2013-09-02 14:39:00,
2013-09-02 08:54:00,71.2,52.0,29.77,ESE,118,1.0,4.0,50,0.00,,,0.00,weatherlink.com 1.10,2013-09-02 14:54:00,
2013-09-02 09:09:00,72.7,52.0,29.76,SSE,163,2.0,7.0,49,0.00,,,0.00,weatherlink.com 1.10,2013-09-02 15:09:00,
2013-09-02 09:24:00,74.1,53.0,29.76,SE,146,3.0,5.0,48,0.00,,,0.00,weatherlink.com 1.10,2013-09-02 15:24:00,
2013-09-02 09:39:00,75.0,55.0,29.76,SW,214,4.0,7.0,50,0.00,,,0.00,weatherlink.com 1.10,2013-09-02 15:39:00,
2013-09-02 09:54:00,76.3,56.0,29.76,South,170,2.0,9.0,50,0.00,,,0.00,weatherlink.com 1.10,2013-09-02 15:54:00,
2013-09-02 10:09:00,78.5,57.0,29.75,South,182,2.0,5.0,47,0.00,,,0.00,weatherlink.com 1.10,2013-09-02 16:09:00,
2013-09-02 10:24:00,78.9,56.0,29.75,SE,138,3.0,8.0,46,0.00,,,0.00,weatherlink.com 1.10,2013-09-02 16:24:00,
2013-09-02 10:39:00,79.9,57.0,29.74,SSE,148,2.0,7.0,45,0.00,,,0.00,weatherlink.com 1.10,2013-09-02 16:39:00,
2013-09-02 10:54:00,81.7,57.0,29.73,SSW,193,2.0,7.0,43,0.00,,,0.00,weatherlink.com 1.10,2013-09-02 16:54:00,
2013-09-02 11:09:00,83.2,57.0,29.73,WSW,240,4.0,5.0,41,0.00,,,0.00,weatherlink.com 1.10,2013-09-02 17:09:00,
2013-09-02 11:24:00,84.5,58.0,29.73,SSE,158,2.0,4.0,40,0.00,,,0.00,weatherlink.com 1.10,2013-09-02 17:24:00,
2013-09-02 11:39:00,87.3,59.0,29.71,South,169,4.0,7.0,38,0.00,,,0.00,weatherlink.com 1.10,2013-09-02 17:39:00,
2013-09-02 11:54:00,88.4,59.0,29.71,SSW,195,4.0,7.0,37,0.00,,,0.00,weatherlink.com 1.10,2013-09-02 17:54:00,
2013-09-02 12:09:00,89.6,59.0,29.70,ESE,109,4.0,7.0,36,0.00,,,0.00,weatherlink.com 1.10,2013-09-02 18:09:00,
2013-09-02 12:25:00,90.5,59.0,29.68,SSE,161,0.0,7.0,35,0.00,,,0.00,weatherlink.com 1.10,2013-09-02 18:25:00,
2013-09-02 12:40:00,91.9,60.0,29.67,SW,221,1.0,6.0,34,0.00,,,0.00,weatherlink.com 1.10,2013-09-02 18:40:00,
2013-09-02 12:55:00,92.1,60.0,29.67,SSE,164,3.0,10.0,34,0.00,,,0.00,weatherlink.com 1.10,2013-09-02 18:55:00,
2013-09-02 13:10:00,94.3,60.0,29.66,SE,133,4.0,8.0,32,0.00,,,0.00,weatherlink.com 1.10,2013-09-02 19:10:00,
2013-09-02 13:25:00,95.0,60.0,29.66,SSW,203,2.0,7.0,31,0.00,,,0.00,weatherlink.com 1.10,2013-09-02 19:25:00,
2013-09-02 13:40:00,95.0,60.0,29.65,SSE,166,0.0,8.0,31,0.00,,,0.00,weatherlink.com 1.10,2013-09-02 19:40:00,
2013-09-02 13:55:00,96.5,59.0,29.64,SSE,155,3.0,9.0,29,0.00,,,0.00,weatherlink.com 1.10,2013-09-02 19:55:00,
2013-09-02 14:10:00,96.9,60.0,29.63,SSW,210,3.0,7.0,29,0.00,,,0.00,weatherlink.com 1.10,2013-09-02 20:10:00,
2013-09-02 14:25:00,98.0,60.0,29.62,SSE,163,5.0,6.0,28,0.00,,,0.00,weatherlink.com 1.10,2013-09-02 20:25:00,
2013-09-02 14:40:00,98.6,56.0,29.61,SSW,200,2.0,11.0,24,0.00,,,0.00,weatherlink.com 1.10,2013-09-02 20:40:00,
2013-09-02 14:55:00,99.8,55.0,29.60,SE,144,1.0,9.0,22,0.00,,,0.00,weatherlink.com 1.10,2013-09-02 20:55:00,
2013-09-02 15:10:00,101.6,56.0,29.60,SSW,205,3.0,5.0,22,0.00,,,0.00,weatherlink.com 1.10,2013-09-02 21:10:00,
2013-09-02 15:25:00,101.8,54.0,29.59,South,172,3.0,7.0,20,0.00,,,0.00,weatherlink.com 1.10,2013-09-02 21:25:00,
2013-09-02 15:40:00,101.5,54.0,29.58,SSE,149,1.0,8.0,20,0.00,,,0.00,weatherlink.com 1.10,2013-09-02 21:40:00,
2013-09-02 15:55:00,102.3,54.0,29.57,SW,221,3.0,7.0,20,0.00,,,0.00,weatherlink.com 1.10,2013-09-02 21:55:00,
2013-09-02 16:10:00,101.6,54.0,29.57,SSE,153,5.0,10.0,20,0.00,,,0.00,weatherlink.com 1.10,2013-09-02 22:10:00,
2013-09-02 16:25:00,100.9,54.0,29.57,South,170,6.0,8.0,21,0.00,,,0.00,weatherlink.com 1.10,2013-09-02 22:25:00,
2013-09-02 16:40:00,100.3,53.0,29.57,SSW,203,1.0,11.0,20,0.00,,,0.00,weatherlink.com 1.10,2013-09-02 22:40:00,
2013-09-02 16:55:00,99.5,53.0,29.57,SSE,166,2.0,10.0,21,0.00,,,0.00,weatherlink.com 1.10,2013-09-02 22:55:00,
2013-09-02 17:10:00,98.6,54.0,29.57,SE,140,2.0,7.0,22,0.00,,,0.00,weatherlink.com 1.10,2013-09-02 23:10:00,
2013-09-02 17:25:00,94.5,54.0,29.57,SSE,150,4.0,11.0,25,0.00,,,0.00,weatherlink.com 1.10,2013-09-02 23:25:00,
2013-09-02 17:40:00,94.1,54.0,29.56,SSW,204,3.0,12.0,26,0.00,,,0.00,weatherlink.com 1.10,2013-09-02 23:40:00,
2013-09-02 17:55:00,92.9,54.0,29.55,West,280,1.0,10.0,27,0.00,,,0.00,weatherlink.com 1.10,2013-09-02 23:55:00,
2013-09-02 18:10:00,90.6,54.0,29.56,South,190,1.0,11.0,29,0.00,,,0.00,weatherlink.com 1.10,2013-09-03 00:10:00,
2013-09-02 18:25:00,89.0,54.0,29.56,SSW,194,1.0,8.0,30,0.00,,,0.00,weatherlink.com 1.10,2013-09-03 00:25:00,
2013-09-02 18:42:00,87.8,54.0,29.57,East,81,2.0,7.0,32,0.00,,,0.00,weatherlink.com 1.10,2013-09-03 00:42:00,
2013-09-02 18:56:00,86.9,55.0,29.60,WNW,285,0.0,5.0,33,0.00,,,0.00,weatherlink.com 1.10,2013-09-03 00:56:00,
2013-09-02 19:11:00,80.4,56.0,29.61,WNW,283,6.0,18.0,44,0.00,,,0.00,weatherlink.com 1.10,2013-09-03 01:11:00,
2013-09-02 19:26:00,78.8,56.0,29.61,West,273,13.0,18.0,46,0.00,,,0.00,weatherlink.com 1.10,2013-09-03 01:26:00,
2013-09-02 19:41:00,78.8,57.0,29.62,NW,315,15.0,15.0,48,0.00,,,0.00,weatherlink.com 1.10,2013-09-03 01:41:00,
2013-09-02 19:56:00,77.4,58.0,29.62,West,276,9.0,21.0,51,0.00,,,0.00,weatherlink.com 1.10,2013-09-03 01:56:00,
2013-09-02 20:11:00,77.7,57.0,29.63,NNW,345,6.0,12.0,49,0.00,,,0.00,weatherlink.com 1.10,2013-09-03 02:11:00,
2013-09-02 20:26:00,76.1,59.0,29.62,NNE,33,6.0,10.0,55,0.00,,,0.00,weatherlink.com 1.10,2013-09-03 02:26:00,
2013-09-02 20:41:00,75.2,58.0,29.59,SSW,202,6.0,13.0,56,0.00,,,0.00,weatherlink.com 1.10,2013-09-03 02:41:00,
2013-09-02 20:56:00,77.6,58.0,29.60,NW,307,4.0,13.0,51,0.00,,,0.00,weatherlink.com 1.10,2013-09-03 02:56:00,
2013-09-02 21:11:00,75.3,58.0,29.61,West,281,0.0,2.0,56,0.00,,,0.00,weatherlink.com 1.10,2013-09-03 03:11:00,
2013-09-02 21:26:00,74.8,59.0,29.62,West,259,0.0,0.0,58,0.00,,,0.00,weatherlink.com 1.10,2013-09-03 03:26:00,
2013-09-02 21:41:00,74.2,59.0,29.62,WSW,248,0.0,0.0,60,0.00,,,0.00,weatherlink.com 1.10,2013-09-03 03:41:00,
2013-09-02 21:56:00,73.6,59.0,29.61,SW,232,0.0,0.0,60,0.00,,,0.00,weatherlink.com 1.10,2013-09-03 03:56:00,
2013-09-02 22:11:00,73.1,59.0,29.62,SW,231,0.0,1.0,62,0.00,,,0.00,weatherlink.com 1.10,2013-09-03 04:11:00,
2013-09-02 22:26:00,73.0,59.0,29.64,West,278,0.0,1.0,62,0.00,,,0.00,weatherlink.com 1.10,2013-09-03 04:26:00,
2013-09-02 22:41:00,73.0,60.0,29.66,NW,315,2.0,9.0,64,0.00,,,0.00,weatherlink.com 1.10,2013-09-03 04:41:00,
2013-09-02 22:56:00,73.4,59.0,29.66,WNW,287,3.0,8.0,62,0.00,,,0.00,weatherlink.com 1.10,2013-09-03 04:56:00,
2013-09-02 23:11:00,73.1,60.0,29.65,West,264,0.0,1.0,63,0.00,,,0.00,weatherlink.com 1.10,2013-09-03 05:11:00,
2013-09-02 23:26:00,72.5,60.0,29.65,West,266,0.0,1.0,65,0.00,,,0.00,weatherlink.com 1.10,2013-09-03 05:26:00,
2013-09-02 23:41:00,71.5,60.0,29.64,WSW,256,0.0,0.0,68,0.00,,,0.00,weatherlink.com 1.10,2013-09-03 05:41:00,
2013-09-02 23:56:00,71.4,61.0,29.64,NNE,22,0.0,1.0,69,0.00,,,0.00,weatherlink.com 1.10,2013-09-03 05:56:00,